createdAt,value
2019-03-31T00:02:02.653Z,66.00
2019-03-31T00:04:28.787Z,59.97
2019-03-31T00:06:55.233Z,67.60
2019-03-31T00:09:21.421Z,71.93
2019-03-31T00:11:47.565Z,63.57
2019-03-31T00:14:13.805Z,67.23
2019-03-31T00:16:40.247Z,65.80
2019-03-31T00:19:07.491Z,65.93
2019-03-31T00:21:39.603Z,70.40
2019-03-31T00:24:05.753Z,67.87
2019-03-31T00:26:31.925Z,70.77
2019-03-31T00:28:58.182Z,67.80
2019-03-31T00:31:24.336Z,70.80
2019-03-31T00:33:50.509Z,73.40
2019-03-31T00:36:16.696Z,69.20
2019-03-31T00:38:42.828Z,70.07
2019-03-31T00:41:08.975Z,69.47
2019-03-31T00:43:35.121Z,71.80
2019-03-31T00:46:01.264Z,74.47
2019-03-31T00:48:27.397Z,73.07
2019-03-31T00:50:53.548Z,71.70
2019-03-31T00:53:19.691Z,75.97
2019-03-31T00:55:46.147Z,78.20
2019-03-31T00:58:12.296Z,80.77
2019-03-31T01:00:46.507Z,75.63
2019-03-31T01:03:16.467Z,75.20
2019-03-31T01:05:42.848Z,75.17
2019-03-31T01:08:09.387Z,83.93
2019-03-31T01:10:35.534Z,73.90
2019-03-31T01:13:02.737Z,79.83
2019-03-31T01:15:30.580Z,73.67
2019-03-31T01:17:56.937Z,74.90
2019-03-31T01:20:23.078Z,84.53
2019-03-31T01:22:49.327Z,81.00
2019-03-31T01:25:15.878Z,78.27
2019-03-31T01:27:42.035Z,74.50
2019-03-31T01:30:10.491Z,76.23
2019-03-31T01:32:37.456Z,78.67
2019-03-31T01:35:06.205Z,78.50
2019-03-31T01:37:32.364Z,75.77
2019-03-31T01:39:59.010Z,75.20
2019-03-31T01:42:25.172Z,77.03
2019-03-31T01:44:51.823Z,76.03
2019-03-31T01:47:18.890Z,77.80
2019-03-31T01:49:45.016Z,80.87
2019-03-31T01:52:11.280Z,78.67
2019-03-31T01:54:37.427Z,83.40
2019-03-31T01:57:03.594Z,82.53
2019-03-31T01:59:29.757Z,81.77
2019-03-31T02:02:04.154Z,79.77
2019-03-31T02:04:24.926Z,75.83
2019-03-31T02:06:51.067Z,75.47
2019-03-31T02:09:17.221Z,83.40
2019-03-31T02:11:43.363Z,84.10
2019-03-31T02:14:09.515Z,85.73
2019-03-31T02:16:35.656Z,80.83
2019-03-31T02:19:01.795Z,78.63
2019-03-31T02:21:28.226Z,86.03
2019-03-31T02:23:54.367Z,81.60
2019-03-31T02:26:20.502Z,75.13
2019-03-31T02:28:46.667Z,79.83
2019-03-31T02:31:13.140Z,79.93
2019-03-31T02:33:39.293Z,84.47
2019-03-31T02:36:05.435Z,79.70
2019-03-31T02:38:31.585Z,77.53
2019-03-31T02:40:57.722Z,77.10
2019-03-31T02:43:23.867Z,86.10
2019-03-31T02:45:50.017Z,87.77
2019-03-31T02:48:16.175Z,83.37
2019-03-31T02:50:47.435Z,81.23
2019-03-31T02:53:15.180Z,80.90
2019-03-31T02:55:42.828Z,81.33
2019-03-31T02:58:11.147Z,84.53
2019-03-31T03:00:37.704Z,80.27
2019-03-31T03:03:05.565Z,86.53
2019-03-31T03:05:33.915Z,90.47
2019-03-31T03:08:02.379Z,83.27
2019-03-31T03:10:31.319Z,86.97
2019-03-31T03:12:59.882Z,85.00
2019-03-31T03:15:26.722Z,83.10
2019-03-31T03:17:53.197Z,92.07
2019-03-31T03:20:19.389Z,83.73
2019-03-31T03:22:45.514Z,84.33
2019-03-31T03:25:11.882Z,88.40
2019-03-31T03:27:38.041Z,86.07
2019-03-31T03:30:05.504Z,87.53
2019-03-31T03:32:31.649Z,91.50
2019-03-31T03:34:57.796Z,92.17
2019-03-31T03:37:23.942Z,86.25
2019-03-31T03:39:50.100Z,90.80
2019-03-31T03:42:16.495Z,91.83
2019-03-31T03:44:42.926Z,90.53
2019-03-31T03:47:09.183Z,85.87
2019-03-31T03:49:35.327Z,94.73
2019-03-31T03:52:01.467Z,91.60
2019-03-31T03:54:27.624Z,96.17
2019-03-31T03:56:53.798Z,86.70
2019-03-31T03:59:19.959Z,89.87
2019-03-31T04:01:46.108Z,90.73
2019-03-31T04:04:12.264Z,91.57
2019-03-31T04:06:38.407Z,98.10
2019-03-31T04:09:05.677Z,99.33
2019-03-31T04:11:31.818Z,91.70
2019-03-31T04:13:57.975Z,95.10
2019-03-31T04:16:24.237Z,98.43
2019-03-31T04:18:50.571Z,100.07
2019-03-31T04:21:16.714Z,97.93
2019-03-31T04:23:43.881Z,95.77
2019-03-31T04:26:10.033Z,96.37
2019-03-31T04:28:36.180Z,93.00
2019-03-31T04:31:02.331Z,96.30
2019-03-31T04:33:28.469Z,95.03
2019-03-31T04:35:55.990Z,91.47
2019-03-31T04:38:22.181Z,92.23
2019-03-31T04:40:48.377Z,88.70
2019-03-31T04:43:14.512Z,83.60
2019-03-31T04:45:41.113Z,93.13
2019-03-31T04:48:07.462Z,91.50
2019-03-31T04:50:33.880Z,94.93
2019-03-31T04:53:00.020Z,89.10
2019-03-31T04:55:26.171Z,90.20
2019-03-31T04:57:52.311Z,85.20
2019-03-31T05:00:18.479Z,87.60
2019-03-31T05:02:44.619Z,87.87
2019-03-31T05:05:10.779Z,83.00
2019-03-31T05:07:36.913Z,85.10
2019-03-31T05:10:05.337Z,78.30
2019-03-31T05:12:31.490Z,71.00
2019-03-31T05:14:57.647Z,72.87
2019-03-31T05:17:24.887Z,68.53
2019-03-31T05:19:51.043Z,69.43
2019-03-31T05:22:17.198Z,65.90
2019-03-31T05:24:43.372Z,69.23
2019-03-31T05:27:09.742Z,75.03
2019-03-31T05:29:35.973Z,69.00
2019-03-31T05:32:02.107Z,65.03
2019-03-31T05:34:28.559Z,67.87
2019-03-31T05:36:54.721Z,66.43
2019-03-31T05:39:20.842Z,62.20
2019-03-31T05:41:46.996Z,63.80
2019-03-31T05:44:13.139Z,67.93
2019-03-31T05:46:39.312Z,68.53
2019-03-31T05:49:05.456Z,64.30
2019-03-31T05:51:31.616Z,66.53
2019-03-31T05:53:57.761Z,62.43
2019-03-31T05:56:23.911Z,60.87
2019-03-31T05:58:50.053Z,63.07
2019-03-31T06:01:16.202Z,62.13
2019-03-31T06:03:42.346Z,62.07
2019-03-31T06:06:08.586Z,64.77
2019-03-31T06:08:34.741Z,66.00
2019-03-31T06:11:00.888Z,64.00
2019-03-31T06:13:27.035Z,69.67
2019-03-31T06:15:53.507Z,65.43
2019-03-31T06:18:19.655Z,70.33
2019-03-31T06:20:45.811Z,64.77
2019-03-31T06:23:11.961Z,60.93
2019-03-31T06:25:38.111Z,61.97
2019-03-31T06:28:04.258Z,59.53
2019-03-31T06:30:30.615Z,64.23
2019-03-31T06:32:56.759Z,60.43
2019-03-31T06:35:22.906Z,56.13
2019-03-31T06:37:49.056Z,62.20
2019-03-31T06:40:15.456Z,58.63
2019-03-31T06:42:41.593Z,53.57
2019-03-31T06:45:08.440Z,58.00
2019-03-31T06:47:34.598Z,52.03
2019-03-31T06:50:01.041Z,55.67
2019-03-31T06:52:27.190Z,56.03
2019-03-31T06:54:53.673Z,56.57
2019-03-31T06:57:19.841Z,54.43
2019-03-31T06:59:45.990Z,55.33
2019-03-31T07:02:12.148Z,53.47
2019-03-31T07:04:38.282Z,50.00
2019-03-31T07:07:05.426Z,49.27
2019-03-31T07:09:31.594Z,52.83
2019-03-31T07:11:57.758Z,51.00
2019-03-31T07:14:23.901Z,59.63
2019-03-31T07:16:50.064Z,52.17
2019-03-31T07:19:16.207Z,55.03
2019-03-31T07:21:42.364Z,56.33
2019-03-31T07:24:08.815Z,61.27
2019-03-31T07:26:34.978Z,56.03
2019-03-31T07:29:02.503Z,61.17
2019-03-31T07:31:28.650Z,64.17
2019-03-31T07:33:54.802Z,58.13
2019-03-31T07:36:20.943Z,57.77
2019-03-31T07:38:47.090Z,61.30
2019-03-31T07:41:13.649Z,55.20
2019-03-31T07:43:40.402Z,58.13
2019-03-31T07:46:06.546Z,64.97
2019-03-31T07:48:32.696Z,68.13
2019-03-31T07:50:59.174Z,65.50
2019-03-31T07:53:26.432Z,61.57
2019-03-31T07:55:52.571Z,61.00
2019-03-31T07:58:18.991Z,60.13
2019-03-31T08:00:46.248Z,63.20
2019-03-31T08:03:12.396Z,59.83
2019-03-31T08:05:38.543Z,58.63
2019-03-31T08:08:04.703Z,59.70
2019-03-31T08:10:30.867Z,52.13
2019-03-31T08:12:57.018Z,55.47
2019-03-31T08:15:23.164Z,50.57
2019-03-31T08:17:49.463Z,49.63
2019-03-31T08:20:17.812Z,52.30
2019-03-31T08:22:43.974Z,45.50
2019-03-31T08:25:12.219Z,46.60
2019-03-31T08:27:38.484Z,43.97
2019-03-31T08:30:10.866Z,44.20
2019-03-31T08:32:37.353Z,41.70
2019-03-31T08:35:06.205Z,37.57
2019-03-31T08:37:32.692Z,42.40
2019-03-31T08:39:58.829Z,42.70
2019-03-31T08:42:24.982Z,38.73
2019-03-31T08:44:51.129Z,35.73
2019-03-31T08:47:17.283Z,40.03
2019-03-31T08:49:44.095Z,36.37
2019-03-31T08:52:10.279Z,34.53
2019-03-31T08:54:36.422Z,36.07
2019-03-31T08:57:02.984Z,34.27
2019-03-31T08:59:29.139Z,30.47
2019-03-31T09:01:55.296Z,33.70
2019-03-31T09:04:21.440Z,36.13
2019-03-31T09:06:47.583Z,35.07
2019-03-31T09:09:13.747Z,33.97
2019-03-31T09:11:40.179Z,32.43
2019-03-31T09:14:06.615Z,29.47
2019-03-31T09:16:32.760Z,30.53
2019-03-31T09:18:58.907Z,30.90
2019-03-31T09:21:25.050Z,28.67
2019-03-31T09:23:51.203Z,30.70
2019-03-31T09:26:17.352Z,26.40
2019-03-31T09:28:43.510Z,27.57
2019-03-31T09:31:09.685Z,25.90
2019-03-31T09:33:39.187Z,26.90
2019-03-31T09:36:15.573Z,29.53
2019-03-31T09:38:32.474Z,27.37
2019-03-31T09:40:58.622Z,30.23
2019-03-31T09:43:24.775Z,27.90
2019-03-31T09:45:50.915Z,27.17
2019-03-31T09:48:17.062Z,25.30
2019-03-31T09:50:43.224Z,27.97
2019-03-31T09:53:09.370Z,27.87
2019-03-31T09:55:35.524Z,25.13
2019-03-31T09:58:01.780Z,28.33
2019-03-31T10:00:46.081Z,30.13
2019-03-31T10:03:12.679Z,27.70
2019-03-31T10:05:39.124Z,27.63
2019-03-31T10:08:05.275Z,24.70
2019-03-31T10:10:31.942Z,27.47
2019-03-31T10:12:58.684Z,31.40
2019-03-31T10:15:24.849Z,32.20
2019-03-31T10:17:50.984Z,25.70
2019-03-31T10:20:17.138Z,25.07
2019-03-31T10:22:43.289Z,24.20
2019-03-31T10:25:13.329Z,22.80
2019-03-31T10:27:39.602Z,22.43
2019-03-31T10:30:06.571Z,20.93
2019-03-31T10:32:32.735Z,22.97
2019-03-31T10:34:58.899Z,26.00
2019-03-31T10:37:25.037Z,26.80
2019-03-31T10:39:51.547Z,23.00
2019-03-31T10:42:17.704Z,23.93
2019-03-31T10:44:43.842Z,21.30
2019-03-31T10:47:09.994Z,18.20
2019-03-31T10:49:36.470Z,22.13
2019-03-31T10:52:02.723Z,24.20
2019-03-31T10:54:28.876Z,24.43
2019-03-31T10:56:55.027Z,26.13
2019-03-31T10:59:21.174Z,26.87
2019-03-31T11:01:47.322Z,23.80
2019-03-31T11:04:13.475Z,24.20
2019-03-31T11:06:39.626Z,22.10
2019-03-31T11:09:05.982Z,24.97
2019-03-31T11:11:32.223Z,24.53
2019-03-31T11:13:58.427Z,25.57
2019-03-31T11:16:24.563Z,28.33
2019-03-31T11:18:50.721Z,23.93
2019-03-31T11:21:18.762Z,24.90
2019-03-31T11:23:45.007Z,24.60
2019-03-31T11:26:11.205Z,24.87
2019-03-31T11:28:37.650Z,22.30
2019-03-31T11:31:03.808Z,23.63
2019-03-31T11:33:30.214Z,24.47
2019-03-31T11:35:56.360Z,25.03
2019-03-31T11:38:22.512Z,25.00
2019-03-31T11:40:48.663Z,24.93
2019-03-31T11:43:14.808Z,26.73
2019-03-31T11:45:40.952Z,27.23
2019-03-31T11:48:07.103Z,28.43
2019-03-31T11:50:33.253Z,21.77
2019-03-31T11:52:59.398Z,21.70
2019-03-31T11:55:25.576Z,21.40
2019-03-31T11:57:52.623Z,23.83
2019-03-31T12:00:23.262Z,28.10
2019-03-31T12:02:49.450Z,26.03
2019-03-31T12:05:15.606Z,27.40
2019-03-31T12:07:46.974Z,24.13
2019-03-31T12:10:10.707Z,22.17
2019-03-31T12:12:36.978Z,20.20
2019-03-31T12:15:05.439Z,21.17
2019-03-31T12:17:31.587Z,20.20
2019-03-31T12:19:57.745Z,20.47
2019-03-31T12:22:23.897Z,17.87
2019-03-31T12:24:50.103Z,17.87
2019-03-31T12:27:16.383Z,16.97
2019-03-31T12:29:42.532Z,15.97
2019-03-31T12:32:08.735Z,16.30
2019-03-31T12:34:34.921Z,18.67
2019-03-31T12:37:01.091Z,17.07
2019-03-31T12:39:27.267Z,15.07
2019-03-31T12:41:53.470Z,17.87
2019-03-31T12:44:19.963Z,14.17
2019-03-31T12:46:46.192Z,14.57
2019-03-31T12:49:12.743Z,18.40
2019-03-31T12:51:39.179Z,15.80
2019-03-31T12:54:05.327Z,14.97
2019-03-31T12:56:31.671Z,14.43
2019-03-31T12:58:57.854Z,13.10
2019-03-31T13:01:24.160Z,12.87
2019-03-31T13:03:50.440Z,12.33
2019-03-31T13:06:16.940Z,13.20
2019-03-31T13:08:43.171Z,13.83
2019-03-31T13:11:09.439Z,10.60
2019-03-31T13:13:35.595Z,15.17
2019-03-31T13:16:01.868Z,15.23
2019-03-31T13:18:28.377Z,10.77
2019-03-31T13:20:54.700Z,10.97
2019-03-31T13:23:20.849Z,13.23
2019-03-31T13:25:47.392Z,13.47
2019-03-31T13:28:13.548Z,12.47
2019-03-31T13:30:39.708Z,14.70
2019-03-31T13:33:05.930Z,15.73
2019-03-31T13:35:32.427Z,20.30
2019-03-31T13:38:10.228Z,12.10
2019-03-31T13:40:26.875Z,13.30
2019-03-31T13:42:53.043Z,14.43
2019-03-31T13:45:19.211Z,11.67
2019-03-31T13:47:45.844Z,14.50
2019-03-31T13:50:12.671Z,11.97
2019-03-31T13:52:38.906Z,11.73
2019-03-31T13:55:06.047Z,11.33
2019-03-31T13:57:33.067Z,11.93
2019-03-31T13:59:59.595Z,14.23
2019-03-31T14:02:25.902Z,14.03
2019-03-31T14:04:52.204Z,14.93
2019-03-31T14:07:18.453Z,13.10
2019-03-31T14:09:44.646Z,12.23
2019-03-31T14:12:10.925Z,13.03
2019-03-31T14:14:37.105Z,11.50
2019-03-31T14:17:03.617Z,11.93
2019-03-31T14:19:29.771Z,16.83
2019-03-31T14:21:57.034Z,15.20
2019-03-31T14:24:26.684Z,11.80
2019-03-31T14:26:51.261Z,11.97
2019-03-31T14:29:17.430Z,13.83
2019-03-31T14:31:43.672Z,15.33
2019-03-31T14:34:09.947Z,14.10
2019-03-31T14:36:36.396Z,16.00
2019-03-31T14:39:05.665Z,14.30
2019-03-31T14:41:31.914Z,12.00
2019-03-31T14:43:58.115Z,12.80
2019-03-31T14:46:24.267Z,11.40
2019-03-31T14:48:50.443Z,13.00
2019-03-31T14:51:16.600Z,12.27
2019-03-31T14:53:42.753Z,13.07
2019-03-31T14:56:09.112Z,15.57
2019-03-31T14:58:35.281Z,15.03
2019-03-31T15:01:01.550Z,12.47
2019-03-31T15:03:28.320Z,16.13
2019-03-31T15:05:54.512Z,14.37
2019-03-31T15:08:20.663Z,18.70
2019-03-31T15:10:46.995Z,16.60
2019-03-31T15:13:13.159Z,14.67
2019-03-31T15:15:39.330Z,16.23
2019-03-31T15:18:05.478Z,14.33
2019-03-31T15:20:31.634Z,13.57
2019-03-31T15:22:57.853Z,19.73
2019-03-31T15:25:25.023Z,15.00
2019-03-31T15:27:52.431Z,13.77
2019-03-31T15:30:18.713Z,13.13
2019-03-31T15:32:44.977Z,16.87
2019-03-31T15:35:11.354Z,15.43
2019-03-31T15:37:37.754Z,12.70
2019-03-31T15:40:05.422Z,12.73
2019-03-31T15:42:31.705Z,13.03
2019-03-31T15:44:57.879Z,15.13
2019-03-31T15:47:24.065Z,18.80
2019-03-31T15:49:50.216Z,13.20
2019-03-31T15:52:16.363Z,11.10
2019-03-31T15:54:42.656Z,10.60
2019-03-31T15:57:08.836Z,10.00
2019-03-31T15:59:34.995Z,14.47
2019-03-31T16:02:01.487Z,9.27
2019-03-31T16:04:29.017Z,12.23
2019-03-31T16:06:55.277Z,11.20
2019-03-31T16:09:23.581Z,9.50
2019-03-31T16:11:53.915Z,10.07
2019-03-31T16:14:17.686Z,10.30
2019-03-31T16:16:43.917Z,10.13
2019-03-31T16:19:10.083Z,12.47
2019-03-31T16:21:36.231Z,11.67
2019-03-31T16:24:02.399Z,11.17
2019-03-31T16:26:28.527Z,10.77
2019-03-31T16:28:54.711Z,11.70
2019-03-31T16:31:20.867Z,12.57
2019-03-31T16:33:47.020Z,10.63
2019-03-31T16:36:13.183Z,9.77
2019-03-31T16:38:40.646Z,8.10
2019-03-31T16:41:06.806Z,10.33
2019-03-31T16:43:32.964Z,11.27
2019-03-31T16:45:59.411Z,8.30
2019-03-31T16:48:26.564Z,9.47
2019-03-31T16:50:53.068Z,12.10
2019-03-31T16:53:19.218Z,10.47
2019-03-31T16:55:45.438Z,8.60
2019-03-31T16:58:11.662Z,11.27
2019-03-31T17:00:37.929Z,9.47
2019-03-31T17:03:04.180Z,8.40
2019-03-31T17:05:30.342Z,12.90
2019-03-31T17:07:56.556Z,10.20
2019-03-31T17:10:22.711Z,11.03
2019-03-31T17:12:48.917Z,8.20
2019-03-31T17:15:15.898Z,9.73
2019-03-31T17:17:42.270Z,9.93
2019-03-31T17:20:08.927Z,9.87
2019-03-31T17:22:35.279Z,9.13
2019-03-31T17:25:02.746Z,9.80
2019-03-31T17:27:29.207Z,7.87
2019-03-31T17:29:55.409Z,10.53
2019-03-31T17:32:21.604Z,11.70
2019-03-31T17:34:47.898Z,10.03
2019-03-31T17:37:14.367Z,7.73
2019-03-31T17:39:40.596Z,10.80
2019-03-31T17:42:06.835Z,9.60
2019-03-31T17:44:33.008Z,8.90
2019-03-31T17:46:59.162Z,11.27
2019-03-31T17:49:25.691Z,9.03
2019-03-31T17:51:52.419Z,10.13
2019-03-31T17:54:19.085Z,10.23
2019-03-31T17:56:45.314Z,13.03
2019-03-31T17:59:11.459Z,11.00
2019-03-31T18:01:37.617Z,9.07
2019-03-31T18:04:03.811Z,8.93
2019-03-31T18:06:30.286Z,9.90
2019-03-31T18:08:56.432Z,8.33
2019-03-31T18:11:22.584Z,10.63
2019-03-31T18:13:49.140Z,10.87
2019-03-31T18:16:15.658Z,10.97
2019-03-31T18:18:41.952Z,13.90
2019-03-31T18:21:08.141Z,11.70
2019-03-31T18:23:34.595Z,10.77
2019-03-31T18:26:00.824Z,8.57
2019-03-31T18:28:27.028Z,9.00
2019-03-31T18:30:53.443Z,7.03
2019-03-31T18:33:19.711Z,11.50
2019-03-31T18:35:45.909Z,12.10
2019-03-31T18:38:12.053Z,10.40
2019-03-31T18:40:38.257Z,12.97
2019-03-31T18:43:04.493Z,6.70
2019-03-31T18:45:30.980Z,13.07
2019-03-31T18:47:57.146Z,13.53
2019-03-31T18:50:23.302Z,13.63
2019-03-31T18:52:49.464Z,9.13
2019-03-31T18:55:35.835Z,9.80
2019-03-31T18:58:03.890Z,8.13
2019-03-31T19:00:48.717Z,10.53
2019-03-31T19:03:31.736Z,13.17
2019-03-31T19:06:02.479Z,9.80
2019-03-31T19:08:36.510Z,7.97
2019-03-31T19:11:21.182Z,8.63
2019-03-31T19:14:04.452Z,11.50
2019-03-31T19:16:41.379Z,13.43
2019-03-31T19:19:25.940Z,11.13
2019-03-31T19:22:09.408Z,8.63
2019-03-31T19:24:46.042Z,12.77
2019-03-31T19:27:22.448Z,9.37
2019-03-31T19:29:56.349Z,11.13
2019-03-31T19:32:26.972Z,11.30
2019-03-31T19:35:13.444Z,11.20
2019-03-31T19:38:00.003Z,10.70
2019-03-31T19:40:31.082Z,9.30
2019-03-31T19:43:01.866Z,8.53
2019-03-31T19:45:35.842Z,10.40
2019-03-31T19:48:16.818Z,12.93
2019-03-31T19:50:45.247Z,6.23
2019-03-31T19:53:28.405Z,6.53
2019-03-31T19:56:07.901Z,11.43
2019-03-31T19:58:35.251Z,10.33
2019-03-31T20:01:05.848Z,7.97
2019-03-31T20:03:36.815Z,6.97
2019-03-31T20:06:19.922Z,7.40
2019-03-31T20:08:53.814Z,5.90
2019-03-31T20:11:25.115Z,10.17
2019-03-31T20:14:08.351Z,7.77
2019-03-31T20:16:45.279Z,5.90
2019-03-31T20:19:13.362Z,7.57
2019-03-31T20:21:53.438Z,8.10
2019-03-31T20:24:33.629Z,11.40
2019-03-31T20:27:04.449Z,8.90
2019-03-31T20:29:47.378Z,8.40
2019-03-31T20:32:24.508Z,7.80
2019-03-31T20:34:55.597Z,7.17
2019-03-31T20:37:32.821Z,12.93
2019-03-31T20:40:03.862Z,6.90
2019-03-31T20:42:34.702Z,9.93
2019-03-31T20:45:01.059Z,8.93
2019-03-31T20:47:27.212Z,9.10
2019-03-31T20:49:53.471Z,9.43
2019-03-31T20:52:19.883Z,12.33
2019-03-31T20:54:47.262Z,12.03
2019-03-31T20:57:13.418Z,10.70
2019-03-31T20:59:39.614Z,7.43
2019-03-31T21:02:05.928Z,8.63
2019-03-31T21:04:32.121Z,8.67
2019-03-31T21:06:58.273Z,9.00
2019-03-31T21:09:24.442Z,9.77
2019-03-31T21:11:50.587Z,7.00
2019-03-31T21:14:16.955Z,8.30
2019-03-31T21:16:43.128Z,9.30
2019-03-31T21:19:09.516Z,11.37
2019-03-31T21:21:35.665Z,9.70
2019-03-31T21:24:01.850Z,9.63
2019-03-31T21:26:28.014Z,11.30
2019-03-31T21:28:54.269Z,9.77
2019-03-31T21:31:20.756Z,11.07
2019-03-31T21:33:46.905Z,17.57
2019-03-31T21:36:13.079Z,19.60
2019-03-31T21:38:39.243Z,20.03
2019-03-31T21:41:05.411Z,13.50
2019-03-31T21:43:31.551Z,13.33
2019-03-31T21:45:57.714Z,13.60
2019-03-31T21:48:23.871Z,15.07
2019-03-31T21:50:50.027Z,8.93
2019-03-31T21:53:16.179Z,13.23
2019-03-31T21:55:42.629Z,13.80
2019-03-31T21:58:09.054Z,11.70
2019-03-31T22:00:49.231Z,16.07
2019-03-31T22:03:17.887Z,10.20
2019-03-31T22:05:44.076Z,14.27
2019-03-31T22:08:10.214Z,13.53
2019-03-31T22:10:36.696Z,11.27
2019-03-31T22:13:03.115Z,9.93
2019-03-31T22:15:30.367Z,11.90
2019-03-31T22:17:56.521Z,15.43
2019-03-31T22:20:22.761Z,9.60
2019-03-31T22:22:49.159Z,11.00
2019-03-31T22:25:15.587Z,10.90
2019-03-31T22:27:42.840Z,10.30
2019-03-31T22:30:09.187Z,8.00
2019-03-31T22:32:35.356Z,9.37
2019-03-31T22:35:02.012Z,6.07
2019-03-31T22:37:28.387Z,12.33
2019-03-31T22:39:54.644Z,10.00
2019-03-31T22:42:20.845Z,7.37
2019-03-31T22:44:46.994Z,6.53
2019-03-31T22:47:13.165Z,9.87
2019-03-31T22:49:39.304Z,13.50
2019-03-31T22:52:05.857Z,10.27
2019-03-31T22:54:31.983Z,10.37
2019-03-31T22:56:58.149Z,12.23
2019-03-31T22:59:24.286Z,8.60
2019-03-31T23:01:50.444Z,8.43
2019-03-31T23:04:16.586Z,11.57
2019-03-31T23:06:42.727Z,10.27
2019-03-31T23:09:08.895Z,13.00
2019-03-31T23:11:35.053Z,8.27
2019-03-31T23:14:01.268Z,7.20
2019-03-31T23:16:27.408Z,12.40
2019-03-31T23:18:53.577Z,10.10
2019-03-31T23:21:19.810Z,7.60
2019-03-31T23:23:46.091Z,8.27
2019-03-31T23:26:12.235Z,9.73
2019-03-31T23:28:40.291Z,12.80
2019-03-31T23:31:06.435Z,8.73
2019-03-31T23:33:32.611Z,13.03
2019-03-31T23:35:58.743Z,13.23
2019-03-31T23:38:24.902Z,7.80
2019-03-31T23:40:51.034Z,11.03
2019-03-31T23:43:17.199Z,10.53
2019-03-31T23:45:43.346Z,11.97
2019-03-31T23:48:10.843Z,9.17
2019-03-31T23:50:37.135Z,7.80
2019-03-31T23:53:04.399Z,7.40
2019-03-31T23:55:30.553Z,8.03
2019-03-31T23:57:56.698Z,11.87
